Flight Track Log - Related Links

Times and Time Zones

All times are in EDT time to prevent confusion due to time zone crossing. See the LOF3416 flight status page for this flight to view local times or setup timezone preferences in your user account.

Time Position Orientation Groundspeed Altitude Reporting Facility
EDT Latitude Longitude Course Direction KTS MPH feet Rate Location/Type
Thu 07:41:19 PM 37.3422 -93.3161 36° Northeast 219 252 5,300  Level Kansas City Center
Thu 07:42:21 PM 37.3947 -93.2697 35° Northeast 223 257 7,300 1,984 Climbing Kansas City Center
Thu 07:43:23 PM 37.4522 -93.2181 35° Northeast 246 283 9,400 1,935 Climbing Kansas City Center
Thu 07:44:25 PM 37.5122 -93.1625 36° Northeast 261 300 11,300 1,403 Climbing Kansas City Center
Thu 07:45:00 PM 37.6411 -93.0203 35° Northeast  Level FlightAware Approximate
Thu 07:45:27 PM 37.5792 -93.1000 36° Northeast 290 334 12,300  Level Kansas City Center
Thu 07:46:29 PM 37.6544 -93.0314 36° Northeast 315 362 13,400 1,355 Climbing Kansas City Center
Thu 07:47:31 PM 37.7506 -92.9428 36° Northeast 338 389 15,100 1,548 Climbing Kansas City Center
Thu 07:48:33 PM 37.8311 -92.8689 36° Northeast 352 405 16,600 1,355 Climbing Kansas City Center
Thu 07:49:35 PM 37.9111 -92.7947 36° Northeast 354 407 17,900 1,161 Climbing Kansas City Center
Thu 07:50:37 PM 37.9881 -92.7231 36° Northeast 356 410 19,000 1,016 Climbing Kansas City Center
Thu 07:51:39 PM 38.0714 -92.6456 36° Northeast 367 422 20,000 968 Climbing Kansas City Center
Thu 07:52:41 PM 38.1572 -92.5661 36° Northeast 379 436 21,000 1,016 Climbing Kansas City Center
Thu 07:53:43 PM 38.2522 -92.4783 36° Northeast 386 444 22,100 1,210 Climbing Kansas City Center
Thu 07:54:45 PM 38.3389 -92.3967 36° Northeast 386 444 23,500 1,403 Climbing Kansas City Center
Thu 07:55:47 PM 38.4233 -92.3167 37° Northeast 379 436 25,000 1,306 Climbing Kansas City Center
Thu 07:56:49 PM 38.5228 -92.2217 37° Northeast 372 428 26,200 968 Climbing Kansas City Center
Thu 07:57:51 PM 38.6083 -92.1417 36° Northeast 376 433 27,000 378 Climbing Kansas City Center
Thu 07:58:56 PM 38.6958 -92.0569 37° Northeast 387 445 27,000  Level Kansas City Center
Thu 07:59:58 PM 38.7892 -91.9686 36° Northeast 408 470 27,000  Level Kansas City Center
Thu 08:01:00 PM 38.8853 -91.8781 36° Northeast 422 486 27,000  Level Kansas City Center
Thu 08:02:01 PM 39.0028 -91.7661 37° Northeast 434 499 27,000  Level Kansas City Center
Thu 08:03:03 PM 39.0883 -91.6850 36° Northeast 434 499 27,000  Level Kansas City Center
Thu 08:04:05 PM 39.1853 -91.5919 37° Northeast 433 498 27,000  Level Kansas City Center
Thu 08:05:07 PM 39.2822 -91.4981 37° Northeast 434 499 27,000  Level Kansas City Center
Thu 08:06:09 PM 39.4003 -91.3831 37° Northeast 441 507 27,000  Level Kansas City Center
Thu 08:07:11 PM 39.4972 -91.2889 37° Northeast 436 502 27,000  Level Kansas City Center
Thu 08:08:13 PM 39.5936 -91.1936 37° Northeast 436 502 27,000  Level Kansas City Center
Thu 08:09:15 PM 39.6908 -91.0983 37° Northeast 436 502 27,000  Level Kansas City Center
Thu 08:10:18 PM 39.7967 -90.9914 38° Northeast 433 498 27,000  Level Kansas City Center
Thu 08:11:19 PM 39.8897 -90.8997 37° Northeast 437 503 27,000  Level Kansas City Center
Thu 08:12:20 PM 39.9856 -90.8039 37° Northeast 436 502 27,000  Level Kansas City Center
Thu 08:13:22 PM 40.0806 -90.7053 38° Northeast 435 501 27,000  Level Kansas City Center
Thu 08:14:24 PM 40.1761 -90.6078 38° Northeast 435 501 27,000  Level Kansas City Center
Thu 08:15:26 PM 40.2911 -90.4917 38° Northeast 435 501 27,000  Level Kansas City Center
Thu 08:16:28 PM 40.3864 -90.3931 38° Northeast 435 501 27,000  Level Kansas City Center
Thu 08:17:42 PM 40.5017 -90.2756 38° Northeast 435 501 27,000  Level Chicago Center
Thu 08:18:44 PM 40.6011 -90.1725 38° Northeast 440 506 27,000 -384 Level Chicago Center
Thu 08:19:47 PM 40.6956 -90.0758 38° Northeast 435 501 26,200 -816 Descending Chicago Center
Thu 08:20:49 PM 40.7864 -89.9761 40° Northeast 429 494 25,300 -823 Descending Chicago Center
Thu 08:21:51 PM 40.8872 -89.8744 37° Northeast 445 512 24,500 -629 Descending Chicago Center
Thu 08:22:53 PM 40.9706 -89.7214 54° Northeast 430 495 24,000 -240 Descending Chicago Center
Thu 08:23:56 PM 41.0306 -89.6114 54° Northeast 422 486 24,000 -242 Level Chicago Center
Thu 08:24:57 PM 41.1147 -89.4547 54° Northeast 432 497 23,500 -878 Descending Chicago Center
Thu 08:25:59 PM 41.1844 -89.3267 54° Northeast 428 493 22,200 -1,500 Descending Chicago Center
Thu 08:27:01 PM 41.2519 -89.1997 55° Northeast 421 484 20,400 -2,081 Descending Chicago Center
Thu 08:28:03 PM 41.3225 -89.0650 55° Northeast 409 471 17,900 -2,468 Descending Chicago Center
Thu 08:29:05 PM 41.3864 -88.9453 55° Northeast 401 461 15,300 -2,565 Descending Chicago Center
Thu 08:30:07 PM 41.4450 -88.8339 55° Northeast 371 427 12,600 -2,064 Descending Chicago Center
Thu 08:31:10 PM 41.4986 -88.7328 55° Northeast 337 388 11,000 -768 Descending Chicago Center
Thu 08:32:12 PM 41.5356 -88.6497 59° Northeast 262 302 11,000  Level Chicago Center
Thu 08:33:14 PM 41.5717 -88.5544 63° Northeast 244 281 11,000 -581 Level Chicago Center
Thu 08:34:16 PM 41.5992 -88.4714 66° East 245 282 9,800 -1,161 Descending Chicago Center
Thu 08:35:18 PM 41.6247 -88.3919 67° East 236 272 8,600 -871 Descending Chicago Center
Thu 08:36:20 PM 41.6506 -88.3164 65° Northeast 225 259 8,000 -290 Descending Chicago Center
Thu 08:37:22 PM 41.6731 -88.2494 66° East 200 230 8,000  Level Chicago Center
Thu 08:38:24 PM 41.7003 -88.1894 59° Northeast 192 221 8,000 -629 Level Chicago Center
Thu 08:39:26 PM 41.7536 -88.1369 36° Northeast 198 228 6,700 -1,306 Descending Chicago Center
Thu 08:40:28 PM 41.7925 -88.0869 44° Northeast 195 224 5,300 -1,355 Descending Chicago Center
Thu 08:41:30 PM 41.8353 -88.0411 39° Northeast 197 227 3,900 -1,210 Descending Chicago Center
Thu 08:42:32 PM 41.8739 -87.9931 43° Northeast 192 221 2,800 -968 Descending Chicago Center
Thu 08:43:34 PM 41.9053 -87.9550 42° Northeast 168 193 1,900 -773 Descending Chicago Center
Thu 08:44:44 PM 41.9333 -87.9167 45° Northeast 129 148 1,100 -686 Descending Chicago TRACON
Thu 08:46:00 PM 41.9667 -87.9000 37° Northeast  Level FlightAware Approximate
Thu 08:53:00 PM 41.9817 -87.9067 37° Northeast  Level Estimated

Login

Don't have an account? Register now (free) for customized features, flight alerts, and more!